AirNav   Pilot Hours Calculator
 
 934 users online  

6NC8 Marchmont Plantation Airpark
Advance, North Carolina, USA

GOING TO ADVANCE?


FAA INFORMATION EFFECTIVE 01 DECEMBER 2022

Location

FAA Identifier: 6NC8
Lat/Long: 35-56-17.4930N 080-23-04.1950W
35-56.291550N 080-23.069917W
35.9381925,-80.3844986
(estimated)
Elevation: 730 ft. / 223 m (estimated)
Variation: 06W (1985)
From city: 1 mile E of ADVANCE, NC
Time zone: UTC -5 (UTC -4 during Daylight Saving Time)
Zip code: 27006

Airport Operations

Airport use: Private use. Permission required prior to landing
Activation date: 01/1987
Control tower: no
ARTCC: ATLANTA CENTER
FSS: RALEIGH FLIGHT SERVICE STATION
Attendance: UNATNDD
Wind indicator: yes
Segmented circle: no

Airport Communications

CTAF: 122.9
WX AWOS-3 at EXX (10 nm SE): 119.825 (336-956-2967)
WX ASOS at INT (14 nm NE): PHONE 336-661-3096
WX AWOS-3 at RUQ (19 nm S): 118.175 (704-637-6197)

Nearby radio navigation aids

VOR radial/distance  VOR name  Freq  Var
GSOr255/20.8GREENSBORO VORTAC116.2003W
LIBr284/38.3LIBERTY VORTAC113.0003W

 
NDB name  Hdg/Dist  Freq  Var  ID
REENO240/13.231707WIN .. -.
ROVDY029/13.327506WRU .-. ..-

Airport Services

Runway Information

Runway 6/24

Dimensions: 2500 x 60 ft. / 762 x 18 m
Surface: turf
RUNWAY 6  RUNWAY 24
Traffic pattern: leftleft
Obstructions: treesnone

Airport Ownership and Management from official FAA records

Ownership: Privately-owned
Owner: MARCHMONT PLANTATION AIRPARK
PO BOX 2201
ADVANCE, NC 27006
Phone 401 602-5131
Manager: MYRON MITCHELL
PO BOX 2201
ADVANCE, NC 27006
Phone 401-602-5131

Airport Operational Statistics

Aircraft based on the field: 9
Single engine airplanes: 9
    

Additional Remarks

LIGHT WIND PREF RWY LAND 24 TO 6.
NO TRNG / NO TOUCH & GOS.
TRICOLOR VASI L SIDE RWY 24 ACTIVATE WITH LIGHTS 5 CLICKS 122.9.
FOR CD CTC ATLANTA ARTCC AT 770-210-7692.

Instrument Procedures

There are no published instrument procedures at 6NC8.

Some nearby airports with instrument procedures:

8A7 - Twin Lakes Airport (4 nm W)
KEXX - Davidson County Airport (10 nm SE)
KINT - Smith Reynolds Airport (14 nm NE)
KRUQ - Mid-Carolina Regional Airport (19 nm S)
KGSO - Piedmont Triad International Airport (24 nm NE)
 
Loc | Ops | Rwys | IFR | FBO | Links
Com | Nav | Svcs | Stats | Notes
Area around 6NC8 (Marchmont Plantation Airpark)
 
Road maps at: MapQuest Bing Google
 
Aerial photo
WARNING: Photo may not be current or correct
Aerial photo of 6NC8 (Marchmont Plantation Airpark)
Do you have a better or more recent aerial photo of Marchmont Plantation Airpark that you would like to share? If so, please send us your photo.

 
Sectional chart

 
Airport distance calculator
Flying to Marchmont Plantation Airpark? Find the distance to fly.

From to 6NC8

Sunrise and sunset
Times for 06-Dec-2022
 Local
(UTC-5)
 Zulu
(UTC)
Morning civil twilight06:5111:51
Sunrise07:1912:19
Sunset17:0622:06
Evening civil twilight17:3522:35

Current date and time
Zulu (UTC)  07-Dec-2022 04:54:55
Local (UTC-5)  06-Dec-2022 23:54:55
 
METAR
KEXX 
10nm SE 
070435Z AUTO 00000KT 1 1/2SM BR BKN002 OVC008 09/09 A3026 RMK AO2 T00920092
KINT 
14nm NE 
070354Z AUTO 00000KT 1 1/2SM BR OVC002 09/09 A3025 RMK AO2 SLP243 T00940094
KRUQ 
18nm S 
070435Z AUTO 00000KT 1 1/2SM BR OVC003 09/09 A3025 RMK AO2 T00870085
TAF
KINT 
14nm NE 
061728Z 0618/0718 30003KT 1 1/2SM -RA BR OVC003 FM062200 VRB02KT 1 1/2SM BR OVC003 FM070400 VRB02KT 1/2SM FG OVC002
NOTAMs
Click for the latest NOTAMs
NOTAMs are issued by the DoD/FAA and will open in a separate window not controlled by AirNav.

 

 
 

Would you like to see your business listed on this page?

 If your business provides an interesting product or service to pilots, flight crews, aircraft, or users of the Marchmont Plantation Airpark, you should consider listing it here.  To start the listing process, click on the button below
 
Add a business
 

Other Pages about Marchmont Plantation Airpark

Update a link
 
Copyright © AirNav, LLC. All rights reserved. Privacy Policy  Contact